Time;durP1;ratioP1;P1;durP2;ratioP2;P2;SDS_P1;SDS_P2;PMS_P1;PMS_P2;Temp;Humidity;BMP_temperature;BMP_pressure;BME280_temperature;BME280_humidity;BME280_pressure;Samples;Min_cycle;Max_cycle;Signal;HPM_P1;HPM_P2
2021/04/18 00:02:14;;;;;;;8.73;6.28;;;;;;;;;;5093296;28;20024;-17
2021/04/18 00:04:40;;;;;;;8.60;6.15;;;;;;;;;;5093444;28;20519;-18
2021/04/18 00:07:05;;;;;;;9.98;5.85;;;;;;;;;;5093291;28;20106;-18
2021/04/18 00:09:31;;;;;;;10.18;6.32;;;;;;;;;;5092961;28;20039;-17
2021/04/18 00:11:56;;;;;;;8.05;5.25;;;;;;;;;;5093180;28;20032;-18
2021/04/18 00:14:24;;;;;;;7.32;4.43;;;;;;;;;;5092846;28;20395;-18
2021/04/18 00:16:50;;;;;;;6.53;4.53;;;;;;;;;;5092909;28;20372;-18
2021/04/18 00:19:15;;;;;;;5.63;4.05;;;;;;;;;;5092878;28;20046;-17
2021/04/18 00:21:40;;;;;;;9.20;5.63;;;;;;;;;;5093082;28;20024;-17
2021/04/18 00:24:06;;;;;;;8.30;5.55;;;;;;;;;;5091816;28;20050;-20
2021/04/18 00:26:31;;;;;;;9.60;5.25;;;;;;;;;;5092653;28;20040;-18
2021/04/18 00:28:57;;;;;;;13.48;6.53;;;;;;;;;;5091434;28;20031;-18
2021/04/18 00:31:23;;;;;;;8.15;5.70;;;;;;;;;;5092596;28;20157;-18
2021/04/18 00:33:48;;;;;;;12.82;4.55;;;;;;;;;;5092978;28;20340;-18
2021/04/18 00:36:14;;;;;;;9.93;6.07;;;;;;;;;;5092593;28;20096;-17
2021/04/18 00:38:39;;;;;;;10.88;7.13;;;;;;;;;;5092570;28;20016;-17
2021/04/18 00:41:04;;;;;;;10.40;5.55;;;;;;;;;;5092833;28;20382;-17
2021/04/18 00:43:30;;;;;;;8.85;5.70;;;;;;;;;;5092520;28;20008;-18
2021/04/18 00:45:55;;;;;;;6.82;4.70;;;;;;;;;;5092490;28;20123;-17
2021/04/18 00:48:21;;;;;;;8.23;5.40;;;;;;;;;;5092404;28;20060;-18
2021/04/18 00:50:46;;;;;;;7.22;5.28;;;;;;;;;;5092492;28;20077;-17
2021/04/18 00:53:12;;;;;;;7.38;5.28;;;;;;;;;;5108166;28;20020;-17
2021/04/18 00:55:39;;;;;;;8.98;4.65;;;;;;;;;;5092716;28;20028;-18
2021/04/18 00:58:06;;;;;;;9.48;5.38;;;;;;;;;;5092508;28;20024;-17
2021/04/18 01:00:32;;;;;;;9.35;5.25;;;;;;;;;;5092053;28;20506;-17
2021/04/18 01:02:57;;;;;;;6.13;4.85;;;;;;;;;;5092667;28;20024;-17
2021/04/18 01:05:23;;;;;;;10.70;4.90;;;;;;;;;;5092226;28;20028;-17
2021/04/18 01:07:50;;;;;;;10.05;4.90;;;;;;;;;;5092358;28;20016;-17
2021/04/18 01:10:19;;;;;;;8.43;5.25;;;;;;;;;;5107928;28;20028;-17
2021/04/18 01:12:45;;;;;;;8.65;4.80;;;;;;;;;;5092204;28;20024;-18
2021/04/18 01:15:11;;;;;;;8.63;5.15;;;;;;;;;;5092454;28;20028;-18
2021/04/18 01:17:37;;;;;;;9.13;4.82;;;;;;;;;;5090927;28;20424;-18
2021/04/18 01:20:04;;;;;;;7.80;5.40;;;;;;;;;;5090968;28;20032;-17
2021/04/18 01:22:31;;;;;;;9.10;4.97;;;;;;;;;;5090701;28;20020;-17
2021/04/18 01:25:15;;;;;;;11.10;5.00;;;;;;;;;;5105339;28;20522;-17
2021/04/18 01:27:57;;;;;;;6.97;5.17;;;;;;;;;;5092412;28;20382;-17
2021/04/18 01:30:27;;;;;;;9.57;4.78;;;;;;;;;;5092163;28;20261;-17
2021/04/18 01:32:54;;;;;;;6.20;4.75;;;;;;;;;;5092100;28;20467;-18
2021/04/18 01:35:19;;;;;;;10.68;5.30;;;;;;;;;;5093558;28;20035;-17
2021/04/18 01:37:46;;;;;;;9.43;5.43;;;;;;;;;;5111905;28;20385;-18
2021/04/18 01:40:13;;;;;;;8.13;4.50;;;;;;;;;;5095857;28;20028;-18
2021/04/18 01:42:38;;;;;;;8.18;4.80;;;;;;;;;;5096051;28;20046;-18
2021/04/18 01:45:05;;;;;;;8.63;4.90;;;;;;;;;;5096177;28;20374;-17
2021/04/18 01:47:31;;;;;;;7.05;4.70;;;;;;;;;;5095521;28;20035;-17
2021/04/18 01:49:56;;;;;;;9.98;5.20;;;;;;;;;;5095952;28;20458;-18
2021/04/18 01:52:22;;;;;;;14.32;6.35;;;;;;;;;;5095793;28;20099;-17
2021/04/18 01:54:49;;;;;;;9.07;5.85;;;;;;;;;;5094357;28;20024;-17
2021/04/18 01:57:15;;;;;;;11.32;4.88;;;;;;;;;;5094209;28;20024;-17
2021/04/18 01:59:44;;;;;;;9.52;5.30;;;;;;;;;;5094191;28;20024;-17
2021/04/18 02:02:29;;;;;;;8.10;5.32;;;;;;;;;;5091659;28;20039;-17
2021/04/18 02:05:04;;;;;;;9.57;5.32;;;;;;;;;;5094125;28;20119;-24
2021/04/18 02:07:29;;;;;;;7.15;5.13;;;;;;;;;;5095503;28;20131;-17
2021/04/18 02:09:55;;;;;;;6.28;4.95;;;;;;;;;;5095647;28;20395;-18
2021/04/18 02:12:21;;;;;;;10.23;6.25;;;;;;;;;;5095168;28;20474;-18
2021/04/18 02:14:46;;;;;;;8.52;6.18;;;;;;;;;;5093918;28;20020;-17
2021/04/18 02:17:16;;;;;;;7.90;5.00;;;;;;;;;;5093855;28;20034;-18
2021/04/18 02:19:41;;;;;;;9.35;4.47;;;;;;;;;;5095173;28;20107;-17
2021/04/18 02:22:07;;;;;;;7.82;5.18;;;;;;;;;;5095337;28;20024;-17
2021/04/18 02:24:38;;;;;;;7.30;4.78;;;;;;;;;;5093502;28;20044;-18
2021/04/18 02:27:05;;;;;;;7.78;5.22;;;;;;;;;;5093632;28;20071;-17
2021/04/18 02:29:35;;;;;;;9.02;5.07;;;;;;;;;;5093701;28;20036;-17
2021/04/18 02:32:08;;;;;;;5.53;4.47;;;;;;;;;;5110571;28;20587;-17
2021/04/18 02:34:39;;;;;;;7.10;4.35;;;;;;;;;;5093590;28;20035;-18
2021/04/18 02:37:05;;;;;;;6.82;4.45;;;;;;;;;;5093531;28;20058;-17
2021/04/18 02:39:31;;;;;;;7.32;5.15;;;;;;;;;;5094648;28;20073;-18
2021/04/18 02:41:57;;;;;;;7.50;4.50;;;;;;;;;;5093427;28;20035;-18
2021/04/18 02:44:23;;;;;;;6.55;4.60;;;;;;;;;;5094671;28;20016;-18
2021/04/18 02:46:49;;;;;;;6.50;4.35;;;;;;;;;;5109395;28;20490;-17
2021/04/18 02:49:15;;;;;;;8.32;3.30;;;;;;;;;;5093198;28;20085;-17
2021/04/18 02:51:42;;;;;;;9.38;5.30;;;;;;;;;;5093233;28;20024;-18
2021/04/18 02:54:09;;;;;;;7.82;5.15;;;;;;;;;;5110127;28;20016;-17
2021/04/18 02:56:38;;;;;;;6.03;4.38;;;;;;;;;;5094743;28;20031;-17
2021/04/18 02:59:07;;;;;;;8.98;5.22;;;;;;;;;;5093128;28;20020;-17
2021/04/18 03:01:33;;;;;;;7.95;4.10;;;;;;;;;;5094176;28;20043;-17
2021/04/18 03:03:58;;;;;;;5.15;3.83;;;;;;;;;;5094349;28;20020;-17
2021/04/18 03:06:24;;;;;;;9.27;5.15;;;;;;;;;;5109783;28;20040;-17
2021/04/18 03:08:50;;;;;;;7.32;4.70;;;;;;;;;;5092889;28;20501;-17
2021/04/18 03:11:17;;;;;;;8.23;5.07;;;;;;;;;;5094290;28;20035;-17
2021/04/18 03:13:44;;;;;;;8.23;4.63;;;;;;;;;;5094133;28;20012;-17
2021/04/18 03:16:10;;;;;;;7.43;4.85;;;;;;;;;;5109635;28;20090;-18
2021/04/18 03:18:40;;;;;;;8.63;5.40;;;;;;;;;;5092728;28;20023;-18
2021/04/18 03:21:07;;;;;;;5.85;4.40;;;;;;;;;;5094206;28;20024;-18
2021/04/18 03:23:33;;;;;;;9.50;5.28;;;;;;;;;;5093627;28;20032;-18
2021/04/18 03:26:02;;;;;;;6.90;4.72;;;;;;;;;;5092588;28;20094;-17
2021/04/18 03:28:27;;;;;;;5.97;4.45;;;;;;;;;;5092518;28;20028;-18
2021/04/18 03:30:55;;;;;;;7.55;5.13;;;;;;;;;;5092441;28;20028;-18
2021/04/18 03:33:23;;;;;;;10.05;4.57;;;;;;;;;;5092416;28;20023;-18
2021/04/18 03:35:59;;;;;;;6.70;4.07;;;;;;;;;;5093686;28;20027;-18
2021/04/18 03:38:26;;;;;;;9.10;5.50;;;;;;;;;;5093823;28;20036;-18
2021/04/18 03:40:51;;;;;;;8.82;5.15;;;;;;;;;;5093467;28;20512;-18
2021/04/18 03:43:17;;;;;;;7.18;4.78;;;;;;;;;;5109158;28;20056;-18
2021/04/18 03:45:42;;;;;;;8.30;4.80;;;;;;;;;;5093735;28;20403;-18
2021/04/18 03:48:09;;;;;;;6.70;4.65;;;;;;;;;;5092132;28;20577;-18
2021/04/18 03:50:35;;;;;;;6.32;4.50;;;;;;;;;;5091906;28;20107;-18
2021/04/18 03:53:17;;;;;;;7.68;4.38;;;;;;;;;;5092033;28;20031;-18
2021/04/18 03:55:48;;;;;;;9.25;5.75;;;;;;;;;;5092075;28;20395;-17
2021/04/18 03:58:17;;;;;;;8.25;5.13;;;;;;;;;;5091753;28;20028;-18
2021/04/18 04:00:48;;;;;;;7.63;5.00;;;;;;;;;;5091775;28;20069;-18
2021/04/18 04:03:15;;;;;;;7.50;5.30;;;;;;;;;;5108759;28;20031;-17
2021/04/18 04:05:44;;;;;;;4.88;4.22;;;;;;;;;;5091805;28;20035;-18
2021/04/18 04:08:13;;;;;;;10.63;5.18;;;;;;;;;;5091696;28;20093;-18
2021/04/18 04:10:39;;;;;;;6.25;4.63;;;;;;;;;;5091627;28;20463;-18
2021/04/18 04:13:05;;;;;;;6.07;5.15;;;;;;;;;;5093141;28;20473;-18
2021/04/18 04:15:32;;;;;;;7.55;4.63;;;;;;;;;;5091543;28;20019;-18
2021/04/18 04:17:59;;;;;;;7.05;4.00;;;;;;;;;;5091618;28;20120;-17
2021/04/18 04:20:53;;;;;;;8.52;4.32;;;;;;;;;;5091587;28;20043;-18
2021/04/18 04:23:41;;;;;;;7.68;5.20;;;;;;;;;;5092712;28;20055;-19
2021/04/18 04:26:07;;;;;;;8.00;5.05;;;;;;;;;;5093071;28;20040;-18
2021/04/18 04:28:33;;;;;;;6.30;4.85;;;;;;;;;;5092923;28;20040;-18
2021/04/18 04:30:59;;;;;;;6.10;4.85;;;;;;;;;;5092729;28;20417;-18
2021/04/18 04:33:24;;;;;;;8.85;5.03;;;;;;;;;;5092691;28;20028;-18
2021/04/18 04:35:50;;;;;;;5.78;4.38;;;;;;;;;;5092901;28;20028;-18
2021/04/18 04:38:15;;;;;;;5.25;4.40;;;;;;;;;;5092599;28;20024;-18
2021/04/18 04:40:41;;;;;;;5.50;4.18;;;;;;;;;;5092957;28;20061;-18
2021/04/18 04:43:06;;;;;;;6.97;4.97;;;;;;;;;;5091252;28;20092;-18
2021/04/18 04:45:32;;;;;;;5.97;3.60;;;;;;;;;;5092437;28;20027;-17
2021/04/18 04:47:57;;;;;;;6.32;4.40;;;;;;;;;;5092627;28;20024;-18
2021/04/18 04:50:23;;;;;;;16.63;5.43;;;;;;;;;;5092352;28;20016;-18
2021/04/18 04:52:48;;;;;;;5.53;4.07;;;;;;;;;;5092804;28;20047;-18
2021/04/18 04:55:14;;;;;;;6.18;4.10;;;;;;;;;;5092446;28;20024;-18
2021/04/18 04:57:40;;;;;;;8.18;4.30;;;;;;;;;;5092379;28;20020;-18
2021/04/18 05:00:06;;;;;;;8.07;4.47;;;;;;;;;;5092735;28;20386;-18
2021/04/18 05:02:31;;;;;;;7.68;4.78;;;;;;;;;;5092251;28;20104;-17
2021/04/18 05:04:57;;;;;;;7.55;4.90;;;;;;;;;;5092656;28;20111;-20
2021/04/18 05:07:22;;;;;;;7.85;4.53;;;;;;;;;;5090940;28;20050;-18
2021/04/18 05:09:48;;;;;;;5.30;4.40;;;;;;;;;;5092842;28;20489;-18
2021/04/18 05:12:13;;;;;;;6.20;4.00;;;;;;;;;;5096341;28;20065;-18
2021/04/18 05:14:38;;;;;;;6.28;4.65;;;;;;;;;;5096736;28;20024;-18
2021/04/18 05:17:04;;;;;;;12.05;5.05;;;;;;;;;;5112188;28;20378;-18
2021/04/18 05:19:29;;;;;;;9.95;4.95;;;;;;;;;;5096152;28;20068;-18
2021/04/18 05:21:55;;;;;;;6.28;4.10;;;;;;;;;;5096283;28;20098;-18
2021/04/18 05:24:20;;;;;;;6.78;4.63;;;;;;;;;;5096045;28;20044;-18
2021/04/18 05:26:46;;;;;;;5.85;4.15;;;;;;;;;;5111815;28;20471;-18
2021/04/18 05:29:11;;;;;;;6.22;3.72;;;;;;;;;;5096425;28;20032;-18
2021/04/18 05:31:37;;;;;;;7.05;4.25;;;;;;;;;;5096119;28;20416;-18
2021/04/18 05:34:02;;;;;;;5.22;4.07;;;;;;;;;;5096056;28;20032;-18
2021/04/18 05:36:28;;;;;;;6.50;4.55;;;;;;;;;;5095922;28;20099;-17
2021/04/18 05:38:53;;;;;;;7.57;4.38;;;;;;;;;;5096265;28;20103;-18
2021/04/18 05:41:19;;;;;;;5.95;4.47;;;;;;;;;;5094458;28;20022;-18
2021/04/18 05:43:46;;;;;;;10.13;4.60;;;;;;;;;;5095945;28;20028;-18
2021/04/18 05:46:11;;;;;;;6.68;4.68;;;;;;;;;;5095675;28;20016;-18
2021/04/18 05:48:37;;;;;;;7.35;4.75;;;;;;;;;;5095712;28;20031;-18
2021/04/18 05:51:03;;;;;;;6.90;5.00;;;;;;;;;;5095362;28;20020;-17
2021/04/18 05:53:28;;;;;;;6.72;4.85;;;;;;;;;;5095330;28;20494;-17
2021/04/18 05:55:54;;;;;;;7.32;4.65;;;;;;;;;;5095652;28;20387;-18
2021/04/18 05:58:19;;;;;;;7.43;4.25;;;;;;;;;;5095336;28;20029;-18
2021/04/18 06:00:45;;;;;;;8.73;4.72;;;;;;;;;;5095606;28;20020;-18
2021/04/18 06:03:10;;;;;;;11.70;7.43;;;;;;;;;;5094120;28;20223;-18
2021/04/18 06:05:36;;;;;;;12.50;7.25;;;;;;;;;;5095363;28;20028;-18
2021/04/18 06:08:02;;;;;;;9.13;4.85;;;;;;;;;;5095407;28;20122;-18
2021/04/18 06:10:28;;;;;;;9.43;5.38;;;;;;;;;;5095198;28;20091;-18
2021/04/18 06:12:54;;;;;;;9.55;6.00;;;;;;;;;;5095267;28;20024;-18
2021/04/18 06:15:19;;;;;;;6.53;4.43;;;;;;;;;;5095163;28;20022;-18
2021/04/18 06:17:45;;;;;;;8.55;5.45;;;;;;;;;;5095210;28;20028;-17
2021/04/18 06:20:11;;;;;;;10.52;6.20;;;;;;;;;;5095164;28;20073;-17
2021/04/18 06:22:37;;;;;;;7.05;5.15;;;;;;;;;;5093869;28;20028;-18
2021/04/18 06:25:06;;;;;;;8.18;4.78;;;;;;;;;;5094004;28;20048;-18
2021/04/18 06:27:32;;;;;;;5.88;4.63;;;;;;;;;;5094966;28;20043;-18
2021/04/18 06:29:57;;;;;;;6.32;4.00;;;;;;;;;;5093524;28;20024;-18
2021/04/18 06:32:23;;;;;;;7.20;4.03;;;;;;;;;;5094494;28;20028;-18
2021/04/18 06:34:49;;;;;;;5.63;4.18;;;;;;;;;;5094740;28;20020;-18
2021/04/18 06:37:14;;;;;;;7.55;4.72;;;;;;;;;;5093078;28;20077;-18
2021/04/18 06:39:40;;;;;;;8.32;4.78;;;;;;;;;;5094869;28;20486;-18
2021/04/18 06:42:05;;;;;;;9.88;4.78;;;;;;;;;;5094827;28;20035;-18
2021/04/18 06:44:31;;;;;;;6.45;4.35;;;;;;;;;;5094339;28;20481;-18
2021/04/18 06:46:58;;;;;;;7.78;4.78;;;;;;;;;;5094591;28;20044;-18
2021/04/18 06:49:25;;;;;;;8.15;4.78;;;;;;;;;;5094478;28;20099;-18
2021/04/18 06:51:52;;;;;;;5.72;4.20;;;;;;;;;;5094701;28;20039;-18
2021/04/18 06:54:17;;;;;;;5.60;3.75;;;;;;;;;;5094730;28;20020;-18
2021/04/18 06:56:44;;;;;;;7.80;4.53;;;;;;;;;;5094554;28;20036;-18
2021/04/18 06:59:09;;;;;;;6.47;4.22;;;;;;;;;;5094619;28;20048;-17
2021/04/18 07:01:35;;;;;;;12.68;5.03;;;;;;;;;;5094332;28;20059;-18
2021/04/18 07:04:09;;;;;;;5.60;4.40;;;;;;;;;;5094378;28;20021;-18
2021/04/18 07:06:45;;;;;;;5.70;3.92;;;;;;;;;;5094358;28;20441;-18
2021/04/18 07:09:11;;;;;;;3.90;3.03;;;;;;;;;;5094337;28;20383;-18
2021/04/18 07:11:47;;;;;;;6.78;4.35;;;;;;;;;;5092732;28;20020;-18
2021/04/18 07:14:29;;;;;;;6.53;4.55;;;;;;;;;;5094117;28;20028;-18
2021/04/18 07:17:03;;;;;;;5.22;3.72;;;;;;;;;;5094128;28;20020;-18
2021/04/18 07:19:29;;;;;;;5.32;3.78;;;;;;;;;;5093912;28;20027;-17
2021/04/18 07:21:55;;;;;;;5.10;3.40;;;;;;;;;;5093879;28;20016;-17
2021/04/18 07:24:22;;;;;;;6.88;4.00;;;;;;;;;;5092400;28;20044;-18
2021/04/18 07:27:09;;;;;;;4.85;3.25;;;;;;;;;;5093754;28;20039;-17
2021/04/18 07:29:34;;;;;;;5.88;2.97;;;;;;;;;;5093852;28;20073;-17
2021/04/18 07:32:15;;;;;;;3.83;2.83;;;;;;;;;;5093694;28;20019;-18
2021/04/18 07:34:40;;;;;;;5.78;3.90;;;;;;;;;;5093781;28;20097;-18
2021/04/18 07:37:10;;;;;;;5.13;4.00;;;;;;;;;;5093953;28;20588;-17
2021/04/18 07:39:48;;;;;;;4.90;3.22;;;;;;;;;;5093594;28;20042;-17
2021/04/18 07:42:32;;;;;;;4.72;2.58;;;;;;;;;;5093604;28;20024;-17
2021/04/18 07:44:58;;;;;;;6.53;2.67;;;;;;;;;;5093587;28;20482;-17
2021/04/18 07:47:25;;;;;;;4.57;2.72;;;;;;;;;;5093299;28;20059;-18
2021/04/18 07:49:51;;;;;;;5.75;3.85;;;;;;;;;;5093700;28;20052;-17
2021/04/18 07:52:17;;;;;;;9.02;3.92;;;;;;;;;;5093249;28;20418;-18
2021/04/18 07:54:43;;;;;;;5.47;3.17;;;;;;;;;;5093346;28;20027;-17
2021/04/18 07:57:08;;;;;;;5.57;3.05;;;;;;;;;;5093340;28;20028;-17
2021/04/18 07:59:34;;;;;;;4.50;3.08;;;;;;;;;;5093385;28;20031;-17
2021/04/18 08:01:59;;;;;;;5.15;3.55;;;;;;;;;;5093161;28;20023;-18
2021/04/18 08:04:25;;;;;;;5.60;3.70;;;;;;;;;;5093142;28;20095;-18
2021/04/18 08:06:50;;;;;;;3.85;3.38;;;;;;;;;;5093082;28;20197;-18
2021/04/18 08:09:17;;;;;;;5.45;3.00;;;;;;;;;;5092959;28;20024;-19
2021/04/18 08:12:02;;;;;;;6.15;2.88;;;;;;;;;;5092995;28;20016;-18
2021/04/18 08:14:28;;;;;;;3.85;2.75;;;;;;;;;;5092794;28;20024;-18
2021/04/18 08:17:02;;;;;;;5.65;2.53;;;;;;;;;;5093191;28;20044;-18
2021/04/18 08:19:27;;;;;;;4.53;3.38;;;;;;;;;;5092917;28;20020;-18
2021/04/18 08:21:53;;;;;;;3.78;2.60;;;;;;;;;;5092811;28;20481;-18
2021/04/18 08:24:18;;;;;;;5.32;2.63;;;;;;;;;;5092517;28;20047;-18
2021/04/18 08:26:56;;;;;;;4.65;3.55;;;;;;;;;;5092780;28;20491;-18
2021/04/18 08:29:21;;;;;;;5.85;3.63;;;;;;;;;;5091429;28;20397;-17
2021/04/18 08:31:50;;;;;;;4.47;2.67;;;;;;;;;;5092686;28;20101;-18
2021/04/18 08:34:20;;;;;;;3.75;2.83;;;;;;;;;;5091481;28;20024;-18
2021/04/18 08:36:49;;;;;;;4.10;2.72;;;;;;;;;;5092725;28;20021;-18
2021/04/18 08:39:14;;;;;;;3.92;2.78;;;;;;;;;;5092758;28;20043;-18
2021/04/18 08:41:44;;;;;;;4.93;3.00;;;;;;;;;;5092627;28;20020;-18
2021/04/18 08:44:14;;;;;;;3.33;2.53;;;;;;;;;;5090987;28;20505;-18
2021/04/18 08:46:39;;;;;;;3.03;2.67;;;;;;;;;;5092304;28;20103;-18
2021/04/18 08:49:05;;;;;;;4.22;2.47;;;;;;;;;;5092837;28;20052;-18
2021/04/18 08:51:31;;;;;;;4.18;2.50;;;;;;;;;;5092609;28;20467;-18
2021/04/18 08:53:58;;;;;;;4.50;2.03;;;;;;;;;;5092788;28;20020;-18
2021/04/18 08:56:43;;;;;;;2.70;2.20;;;;;;;;;;5092396;28;20024;-17
2021/04/18 08:59:09;;;;;;;6.13;2.67;;;;;;;;;;5092361;28;20077;-19
2021/04/18 09:01:35;;;;;;;5.03;3.53;;;;;;;;;;5091034;28;20463;-19
2021/04/18 09:04:02;;;;;;;3.90;2.78;;;;;;;;;;5092517;28;20031;-19
2021/04/18 09:06:35;;;;;;;3.13;2.83;;;;;;;;;;5092200;28;20379;-19
2021/04/18 09:09:02;;;;;;;3.72;2.10;;;;;;;;;;5092420;28;20028;-18
2021/04/18 09:11:28;;;;;;;5.30;3.22;;;;;;;;;;5092130;28;20463;-19
2021/04/18 09:13:58;;;;;;;3.70;1.95;;;;;;;;;;5092282;28;20028;-19
2021/04/18 09:16:25;;;;;;;2.72;1.90;;;;;;;;;;5092241;28;20027;-19
2021/04/18 09:18:50;;;;;;;5.68;2.33;;;;;;;;;;5092790;28;20020;-19
2021/04/18 09:21:16;;;;;;;5.25;3.17;;;;;;;;;;5090781;28;20135;-19
2021/04/18 09:24:00;;;;;;;3.97;2.75;;;;;;;;;;5092218;28;20039;-19
2021/04/18 09:26:26;;;;;;;5.97;3.55;;;;;;;;;;5092121;28;20043;-19
2021/04/18 09:29:08;;;;;;;4.00;2.47;;;;;;;;;;5090947;28;20018;-19
2021/04/18 09:31:34;;;;;;;3.25;1.92;;;;;;;;;;5090762;28;20107;-19
2021/04/18 09:34:03;;;;;;;2.90;1.98;;;;;;;;;;5092402;28;20146;-19
2021/04/18 09:36:29;;;;;;;5.03;2.22;;;;;;;;;;5092240;28;20046;-19
2021/04/18 09:38:54;;;;;;;3.53;2.72;;;;;;;;;;5090888;28;20020;-16
2021/04/18 09:41:20;;;;;;;4.53;2.70;;;;;;;;;;5091827;28;20032;-16
2021/04/18 09:43:45;;;;;;;3.30;2.33;;;;;;;;;;5092082;28;20061;-19
2021/04/18 09:46:11;;;;;;;4.28;2.53;;;;;;;;;;5091905;28;20070;-19
2021/04/18 09:48:36;;;;;;;2.05;1.45;;;;;;;;;;5090908;28;20055;-20
2021/04/18 09:51:03;;;;;;;5.90;3.10;;;;;;;;;;5091865;28;20028;-17
2021/04/18 09:53:30;;;;;;;5.45;3.08;;;;;;;;;;5090589;28;20024;-18
2021/04/18 09:55:57;;;;;;;5.10;3.60;;;;;;;;;;5092602;28;20026;-17
2021/04/18 09:58:26;;;;;;;4.20;2.58;;;;;;;;;;5095863;28;20020;-17
2021/04/18 10:00:51;;;;;;;6.85;2.80;;;;;;;;;;5096039;28;20028;-17
2021/04/18 10:03:17;;;;;;;7.05;4.95;;;;;;;;;;5095397;28;20022;-18
2021/04/18 10:05:42;;;;;;;5.22;3.58;;;;;;;;;;5095450;28;20032;-18
2021/04/18 10:08:14;;;;;;;4.70;2.63;;;;;;;;;;5094332;28;20463;-17
2021/04/18 10:10:39;;;;;;;3.92;2.85;;;;;;;;;;5095550;28;20032;-17
2021/04/18 10:13:05;;;;;;;5.03;3.00;;;;;;;;;;5095409;28;20051;-17
2021/04/18 10:15:31;;;;;;;4.90;4.07;;;;;;;;;;5095283;28;20031;-17
2021/04/18 10:17:56;;;;;;;6.22;3.63;;;;;;;;;;5095270;28;20024;-17
2021/04/18 10:20:23;;;;;;;5.82;4.15;;;;;;;;;;5095334;28;20028;-16
2021/04/18 10:23:02;;;;;;;7.85;4.13;;;;;;;;;;5093843;28;20370;-17
2021/04/18 10:25:27;;;;;;;4.13;2.42;;;;;;;;;;5095284;28;20074;-17
2021/04/18 10:27:53;;;;;;;5.43;3.60;;;;;;;;;;5095267;28;20447;-17
2021/04/18 10:30:19;;;;;;;5.25;3.10;;;;;;;;;;5095239;28;20490;-17
2021/04/18 10:32:45;;;;;;;5.30;3.63;;;;;;;;;;5094934;28;20101;-17
2021/04/18 10:35:10;;;;;;;6.38;4.38;;;;;;;;;;5093564;28;20467;-17
2021/04/18 10:37:36;;;;;;;6.35;3.97;;;;;;;;;;5094851;28;20055;-17
2021/04/18 10:40:02;;;;;;;4.97;3.72;;;;;;;;;;5093484;28;20028;-17
2021/04/18 10:42:27;;;;;;;5.95;3.42;;;;;;;;;;5094740;28;20023;-17
2021/04/18 10:44:53;;;;;;;7.50;4.05;;;;;;;;;;5094728;28;20035;-17
2021/04/18 10:47:19;;;;;;;6.78;4.25;;;;;;;;;;5094439;28;20028;-16
2021/04/18 10:49:46;;;;;;;7.07;4.43;;;;;;;;;;5094921;28;20038;-17
2021/04/18 10:52:12;;;;;;;8.13;4.18;;;;;;;;;;5094874;28;20379;-17
2021/04/18 10:54:37;;;;;;;6.43;2.80;;;;;;;;;;5093098;28;20032;-17
2021/04/18 10:57:03;;;;;;;5.85;3.35;;;;;;;;;;5094620;28;20027;-17
2021/04/18 10:59:28;;;;;;;5.85;3.55;;;;;;;;;;5094293;28;20024;-17
2021/04/18 11:01:54;;;;;;;7.18;4.28;;;;;;;;;;5094400;28;20028;-17
2021/04/18 11:04:20;;;;;;;5.25;2.80;;;;;;;;;;5094297;28;20020;-18
2021/04/18 11:06:46;;;;;;;8.18;3.33;;;;;;;;;;5092844;28;20376;-17
2021/04/18 11:09:11;;;;;;;5.38;2.72;;;;;;;;;;5093640;28;20042;-17
2021/04/18 11:11:37;;;;;;;4.35;3.58;;;;;;;;;;5094018;28;20028;-17
2021/04/18 11:14:04;;;;;;;5.65;3.47;;;;;;;;;;5094213;28;20024;-17
2021/04/18 11:16:29;;;;;;;6.53;3.53;;;;;;;;;;5092832;28;20020;-17
2021/04/18 11:18:55;;;;;;;4.45;3.05;;;;;;;;;;5094121;28;20024;-18
2021/04/18 11:21:22;;;;;;;4.78;3.15;;;;;;;;;;5094072;28;20020;-17
2021/04/18 11:23:47;;;;;;;5.13;2.85;;;;;;;;;;5092767;28;20044;-18
2021/04/18 11:26:13;;;;;;;5.50;4.05;;;;;;;;;;5075786;28;20519;-17
2021/04/18 11:28:38;;;;;;;4.57;2.72;;;;;;;;;;5092445;28;20024;-17
2021/04/18 11:31:04;;;;;;;6.05;3.60;;;;;;;;;;5092573;28;20065;-17
2021/04/18 11:33:30;;;;;;;6.55;3.53;;;;;;;;;;5092806;28;20102;-17
2021/04/18 11:35:56;;;;;;;5.75;4.68;;;;;;;;;;5093973;28;20565;-18
2021/04/18 11:38:21;;;;;;;7.55;4.57;;;;;;;;;;5093882;28;20074;-17
2021/04/18 11:40:47;;;;;;;6.05;4.78;;;;;;;;;;5093710;28;20024;-17
2021/04/18 11:43:12;;;;;;;6.75;3.67;;;;;;;;;;5093626;28;20474;-18
2021/04/18 11:45:38;;;;;;;6.97;4.07;;;;;;;;;;5093526;28;20020;-18
2021/04/18 11:48:03;;;;;;;7.88;4.25;;;;;;;;;;5092219;28;20047;-17
2021/04/18 11:50:29;;;;;;;4.38;2.50;;;;;;;;;;5093516;28;20374;-17
2021/04/18 11:52:55;;;;;;;4.88;3.35;;;;;;;;;;5092202;28;20478;-17
2021/04/18 11:55:23;;;;;;;5.15;3.35;;;;;;;;;;5093531;28;20012;-17
2021/04/18 11:57:49;;;;;;;5.20;4.03;;;;;;;;;;5093338;28;20052;-17
2021/04/18 12:00:14;;;;;;;5.63;3.85;;;;;;;;;;5093211;28;20055;-17
2021/04/18 12:02:40;;;;;;;7.20;3.88;;;;;;;;;;5093505;28;20111;-17
2021/04/18 12:05:06;;;;;;;12.35;8.02;;;;;;;;;;5093236;28;20028;-18
2021/04/18 12:07:32;;;;;;;5.07;2.65;;;;;;;;;;5092984;28;20040;-18
2021/04/18 12:09:57;;;;;;;4.63;2.95;;;;;;;;;;5093134;28;20104;-17
2021/04/18 12:12:23;;;;;;;4.75;3.28;;;;;;;;;;5091696;28;20028;-17
2021/04/18 12:14:50;;;;;;;4.55;3.58;;;;;;;;;;5091825;28;20020;-17
2021/04/18 12:17:16;;;;;;;7.65;5.30;;;;;;;;;;5093336;28;20038;-17
2021/04/18 12:19:42;;;;;;;7.15;6.03;;;;;;;;;;5090726;28;20375;-17
2021/04/18 12:22:08;;;;;;;10.02;5.40;;;;;;;;;;5092924;28;20113;-17
2021/04/18 12:24:33;;;;;;;5.72;3.75;;;;;;;;;;5092704;28;20044;-17
2021/04/18 12:26:59;;;;;;;6.38;4.50;;;;;;;;;;5093015;28;20391;-18
2021/04/18 12:29:25;;;;;;;5.10;3.22;;;;;;;;;;5093071;28;20459;-17
2021/04/18 12:31:50;;;;;;;9.00;3.13;;;;;;;;;;5092785;28;20026;-17
2021/04/18 12:34:16;;;;;;;5.32;3.03;;;;;;;;;;5091456;28;20020;-18
2021/04/18 12:36:41;;;;;;;4.68;3.05;;;;;;;;;;5092603;28;20040;-17
2021/04/18 12:39:07;;;;;;;4.13;3.10;;;;;;;;;;5092679;28;20255;-18
2021/04/18 12:41:33;;;;;;;4.85;3.63;;;;;;;;;;5092582;28;20053;-17
2021/04/18 12:43:59;;;;;;;5.50;3.45;;;;;;;;;;5092586;28;20024;-17
2021/04/18 12:46:24;;;;;;;6.85;4.30;;;;;;;;;;5092420;28;20032;-16
2021/04/18 12:48:50;;;;;;;7.38;4.32;;;;;;;;;;5092567;28;20016;-17
2021/04/18 12:51:15;;;;;;;4.70;3.40;;;;;;;;;;5092471;28;20479;-17
2021/04/18 12:53:41;;;;;;;7.63;2.63;;;;;;;;;;5091110;28;20020;-17
2021/04/18 12:56:07;;;;;;;4.40;3.17;;;;;;;;;;5092499;28;20024;-17
2021/04/18 12:58:32;;;;;;;6.95;3.80;;;;;;;;;;5091116;28;20039;-17
2021/04/18 13:00:58;;;;;;;6.70;2.90;;;;;;;;;;5092653;28;20051;-17
2021/04/18 13:03:23;;;;;;;5.95;3.53;;;;;;;;;;5092585;28;20489;-17
2021/04/18 13:05:49;;;;;;;5.80;3.28;;;;;;;;;;5092343;28;20383;-17
2021/04/18 13:08:15;;;;;;;4.55;2.42;;;;;;;;;;5092654;28;20111;-17
2021/04/18 13:10:40;;;;;;;4.07;2.72;;;;;;;;;;5092455;28;20428;-17
2021/04/18 13:13:05;;;;;;;5.43;3.40;;;;;;;;;;5091111;28;20036;-16
2021/04/18 13:15:31;;;;;;;6.03;3.90;;;;;;;;;;5092105;28;20024;-17
2021/04/18 13:17:57;;;;;;;7.07;3.95;;;;;;;;;;5092308;28;20115;-17
2021/04/18 13:20:23;;;;;;;4.95;3.25;;;;;;;;;;5092453;28;20024;-17
2021/04/18 13:22:51;;;;;;;7.55;4.38;;;;;;;;;;5092204;28;20039;-17
2021/04/18 13:25:16;;;;;;;6.85;3.63;;;;;;;;;;5092055;28;20044;-17
2021/04/18 13:27:42;;;;;;;5.15;3.75;;;;;;;;;;5092055;28;20036;-17
2021/04/18 13:30:09;;;;;;;5.82;3.60;;;;;;;;;;5090790;28;20024;-17
2021/04/18 13:32:34;;;;;;;6.20;3.78;;;;;;;;;;5095555;28;20020;-17
2021/04/18 13:35:00;;;;;;;14.63;4.20;;;;;;;;;;5095175;28;20027;-18
2021/04/18 13:37:26;;;;;;;4.85;3.33;;;;;;;;;;5095850;28;20035;-17
2021/04/18 13:39:52;;;;;;;7.10;4.20;;;;;;;;;;5095956;28;20028;-17
2021/04/18 13:42:18;;;;;;;5.63;4.15;;;;;;;;;;5095991;28;20391;-17
2021/04/18 13:44:43;;;;;;;7.43;4.53;;;;;;;;;;5096197;28;20028;-18
2021/04/18 13:47:09;;;;;;;4.85;3.88;;;;;;;;;;5096072;28;20024;-17
2021/04/18 13:49:34;;;;;;;6.72;3.65;;;;;;;;;;5095757;28;20028;-17
2021/04/18 13:51:59;;;;;;;4.13;2.75;;;;;;;;;;5095772;28;20016;-18
2021/04/18 13:54:25;;;;;;;5.32;3.65;;;;;;;;;;5095648;28;20028;-17
2021/04/18 13:56:50;;;;;;;4.65;2.90;;;;;;;;;;5096030;28;20051;-17
2021/04/18 13:59:15;;;;;;;5.38;3.03;;;;;;;;;;5095951;28;20067;-17
2021/04/18 14:01:41;;;;;;;7.53;3.88;;;;;;;;;;5095474;28;20089;-17
2021/04/18 14:04:06;;;;;;;5.63;3.80;;;;;;;;;;5095691;28;20024;-17
2021/04/18 14:06:31;;;;;;;8.02;3.75;;;;;;;;;;5093986;28;20107;-16
2021/04/18 14:08:57;;;;;;;5.97;3.78;;;;;;;;;;5095614;28;20111;-16
2021/04/18 14:11:24;;;;;;;5.03;3.50;;;;;;;;;;5095249;28;20047;-17
2021/04/18 14:13:50;;;;;;;4.93;3.67;;;;;;;;;;5095340;28;20039;-17
2021/04/18 14:16:15;;;;;;;5.82;3.25;;;;;;;;;;5095448;28;20024;-17
2021/04/18 14:18:41;;;;;;;7.95;3.90;;;;;;;;;;5095180;28;20047;-17
2021/04/18 14:21:07;;;;;;;5.80;3.80;;;;;;;;;;5095441;28;20031;-17
2021/04/18 14:23:33;;;;;;;6.30;3.03;;;;;;;;;;5094958;28;20489;-18
2021/04/18 14:25:59;;;;;;;5.50;3.22;;;;;;;;;;5094969;28;20042;-17
2021/04/18 14:28:25;;;;;;;5.60;3.78;;;;;;;;;;5095310;28;20028;-17
2021/04/18 14:30:50;;;;;;;5.13;3.10;;;;;;;;;;5095029;28;20479;-17
2021/04/18 14:33:16;;;;;;;5.63;3.70;;;;;;;;;;5094965;28;20036;-18
2021/04/18 14:35:41;;;;;;;6.78;4.03;;;;;;;;;;5094893;28;20023;-17
2021/04/18 14:38:07;;;;;;;7.40;4.05;;;;;;;;;;5094790;28;20039;-17
2021/04/18 14:40:32;;;;;;;6.32;4.13;;;;;;;;;;5094975;28;20024;-17
2021/04/18 14:42:58;;;;;;;5.70;3.88;;;;;;;;;;5094048;28;20082;-18